Fredericksburg, TX

8:12 PM CDT on September 29, 2016 (GMT -0500)
Fredericksburg

Weather History for KT82 - December, 2012

Change the Weather History Date:

Sunday, December 23, 2012

  Actual Average (KSAT) Record (KSAT)
Temperature  
Mean Temperature 58 °F 52 °F  
Max Temperature 67 °F 63 °F 83 °F (1972)
Min Temperature 50 °F 41 °F 6 °F (1989)
Degree Days  
Heating Degree Days 6 14  
Month to date heating degree days 280  
Since 1 July heating degree days 491  
Cooling Degree Days 0 0  
Month to date cooling degree days 7  
Year to date cooling degree days 3124  
Growing Degree Days 8 (Base 50)    
Moisture  
Dew Point 54 °F    
Average Humidity 83    
Maximum Humidity 96    
Minimum Humidity 60    
Precipitation  
Precipitation 0.00 in 0.06 in 1.04 in (2006)
Month to date precipitation 1.39  
Year to date precipitation 31.75  
Snow  
Snow 0.00 in - - ()
Month to date snowfall  
Since 1 July snowfall  
Snow Depth -    
Sea Level Pressure  
Sea Level Pressure 29.99 in    
Wind  
Wind Speed 7 mph (SW)    
Max Wind Speed 13 mph    
Max Gust Speed 18 mph    
Visibility 10 miles    
Events      
T = Trace of Precipitation, MM = Missing Value Source: NWS Daily Summary

Daily Weather History Graph

Daily Weather History Graph

Search for Another Location

Airport or City:

Trip Planner

Search our weather history database for the weather conditions in past years. The results will help you decide how hot, cold, wet, or windy it might be!

Date:

Astronomy

Dec. 23, 2012 Rise Set
Actual Time 7:29 AM CST 5:41 PM CST
Civil Twilight 7:02 AM CST 6:07 PM CST
Nautical Twilight 6:32 AM CST 6:37 PM CST
Astronomical Twilight 6:03 AM CST 7:06 PM CST
Moon 2:25 PM CST (12/23) 3:21 AM CST (12/23)
Length of Visible Light 11h 04m
Length of Day
10h 11m
Waxing Gibbous, 82% of the Moon is Illuminated
Dec 23
Waxing Gibbous
Dec 28
Full
Jan 4
Last Quarter
Jan 11
New
Jan 18
First Quarter

Hourly Weather History & Observations

Time (CST) Temp. Dew Point Humidity Pressure Visibility Wind Dir Wind Speed Gust Speed Precip Events Conditions
12:15 AM 52.5 °F 51.3 °F 95% 30.08 in 10.0 mi SW 5.8 mph - N/A   Mostly Cloudy
12:35 AM 55.4 °F 53.1 °F 92% 30.07 in 10.0 mi SW 6.9 mph - N/A   Mostly Cloudy
12:55 AM 56.5 °F 54.0 °F 91% 30.06 in 10.0 mi SSW 10.4 mph - N/A   Scattered Clouds
1:15 AM 57.0 °F 54.3 °F 91% 30.06 in 10.0 mi SSW 8.1 mph - N/A   Mostly Cloudy
1:35 AM 57.2 °F 54.7 °F 91% 30.05 in 10.0 mi SSW 10.4 mph 16.1 mph N/A   Overcast
1:55 AM 57.4 °F 55.0 °F 92% 30.05 in 10.0 mi SSW 10.4 mph - N/A   Overcast
2:15 AM 58.1 °F 55.6 °F 91% 30.06 in 10.0 mi SSW 11.5 mph 18.4 mph N/A   Overcast
2:35 AM 58.1 °F 55.6 °F 91% 30.05 in 10.0 mi SW 6.9 mph - N/A   Overcast
2:55 AM 58.1 °F 55.9 °F 93% 30.04 in 10.0 mi SW 5.8 mph 9.2 mph N/A   Overcast
3:15 AM 58.1 °F 56.1 °F 93% 30.04 in 10.0 mi SSW 6.9 mph - N/A   Overcast
3:35 AM 58.3 °F 56.3 °F 93% 30.03 in 10.0 mi SW 10.4 mph - N/A   Overcast
3:55 AM 58.6 °F 56.7 °F 93% 30.04 in 10.0 mi SW 12.7 mph 17.3 mph N/A   Overcast
4:15 AM 58.5 °F 56.7 °F 94% 30.03 in 10.0 mi SW 12.7 mph 17.3 mph N/A   Overcast
4:35 AM 58.3 °F 56.5 °F 94% 30.02 in 10.0 mi SW 12.7 mph - N/A   Overcast
4:55 AM 58.3 °F 56.5 °F 94% 30.02 in 10.0 mi SW 6.9 mph - N/A   Overcast
5:15 AM 58.3 °F 56.5 °F 94% 30.01 in 10.0 mi SW 6.9 mph - N/A   Overcast
5:35 AM 58.3 °F 56.5 °F 94% 30.02 in 10.0 mi SW 8.1 mph - N/A   Overcast
5:55 AM 58.1 °F 56.5 °F 94% 30.01 in 10.0 mi SW 11.5 mph - N/A   Overcast
6:15 AM 58.1 °F 56.7 °F 95% 30.01 in 10.0 mi SW 8.1 mph - N/A   Overcast
6:35 AM 58.1 °F 56.5 °F 94% 30.01 in 10.0 mi SW 9.2 mph - N/A   Overcast
6:55 AM 57.7 °F 56.3 °F 95% 30.02 in 10.0 mi SW 9.2 mph - N/A   Overcast
7:15 AM 57.4 °F 56.3 °F 96% 30.02 in 10.0 mi SW 9.2 mph - N/A   Mostly Cloudy
7:35 AM 57.6 °F 56.3 °F 96% 30.02 in 10.0 mi SW 5.8 mph - N/A   Mostly Cloudy
7:55 AM 57.6 °F 56.3 °F 96% 30.03 in 10.0 mi WSW 8.1 mph - N/A   Mostly Cloudy
8:15 AM 57.7 °F 56.3 °F 95% 30.03 in 10.0 mi WSW 10.4 mph - N/A   Scattered Clouds
8:35 AM 57.7 °F 56.3 °F 95% 30.03 in 10.0 mi WSW 9.2 mph - N/A   Scattered Clouds
8:55 AM 58.3 °F 56.5 °F 94% 30.03 in 10.0 mi SW 8.1 mph - N/A   Clear
9:15 AM 59.0 °F 56.3 °F 91% 30.04 in 10.0 mi SW 9.2 mph - N/A   Clear
9:35 AM 59.5 °F 56.3 °F 89% 30.04 in 10.0 mi SW 6.9 mph - N/A   Clear
9:55 AM 59.9 °F 56.3 °F 88% 30.05 in 10.0 mi WSW 8.1 mph - N/A   Clear
10:15 AM 60.8 °F 56.3 °F 85% 30.05 in 10.0 mi SW 6.9 mph - N/A   Clear
10:35 AM 61.3 °F 56.3 °F 83% 30.05 in 10.0 mi SW 8.1 mph - N/A   Clear
10:55 AM 62.2 °F 55.8 °F 79% 30.04 in 10.0 mi WSW 8.1 mph - N/A   Clear
11:15 AM 62.8 °F 55.4 °F 77% 30.04 in 10.0 mi WSW 10.4 mph - N/A   Clear
11:35 AM 64.2 °F 55.4 °F 73% 30.02 in 10.0 mi SW 10.4 mph - N/A   Clear
11:55 AM 66.4 °F 54.0 °F 64% 29.99 in 10.0 mi WSW 8.1 mph - N/A   Clear
12:15 PM 66.6 °F 54.0 °F 64% 29.99 in 10.0 mi SW 10.4 mph - N/A   Clear
12:35 PM 66.9 °F 53.6 °F 62% 29.98 in 10.0 mi SW 9.2 mph - N/A   Clear
12:55 PM 67.1 °F 53.4 °F 61% 29.97 in 10.0 mi SW 6.9 mph - N/A   Clear
1:15 PM 67.1 °F 52.7 °F 60% 29.96 in 10.0 mi SW 8.1 mph - N/A   Clear
1:35 PM 66.7 °F 52.7 °F 61% 29.94 in 10.0 mi SW 9.2 mph - N/A   Clear
1:55 PM 66.9 °F 52.9 °F 61% 29.94 in 10.0 mi SW 6.9 mph - N/A   Clear
2:15 PM 66.7 °F 52.7 °F 61% 29.93 in 10.0 mi SSW 8.1 mph - N/A   Clear
2:35 PM 66.7 °F 52.7 °F 61% 29.93 in 10.0 mi SW 5.8 mph - N/A   Clear
2:55 PM 66.2 °F 53.6 °F 64% 29.93 in 10.0 mi SSW 8.1 mph - N/A   Clear
3:15 PM 65.8 °F 53.6 °F 65% 29.92 in 10.0 mi SW 6.9 mph - N/A   Clear
3:35 PM 65.7 °F 53.8 °F 65% 29.92 in 10.0 mi SSW 6.9 mph - N/A   Clear
3:55 PM 65.5 °F 53.6 °F 65% 29.92 in 10.0 mi SW 6.9 mph - N/A   Clear
4:15 PM 65.3 °F 53.4 °F 65% 29.92 in 10.0 mi SW 5.8 mph - N/A   Clear
4:35 PM 64.8 °F 53.1 °F 66% 29.92 in 10.0 mi SSW 5.8 mph - N/A   Clear
4:55 PM 64.2 °F 53.1 °F 67% 29.91 in 10.0 mi SSW 3.5 mph - N/A   Clear
5:15 PM 63.5 °F 52.7 °F 68% 29.91 in 10.0 mi Calm Calm - N/A   Clear
5:35 PM 60.6 °F 52.0 °F 73% 29.92 in 10.0 mi Calm Calm - N/A   Clear
5:55 PM 59.7 °F 51.8 °F 75% 29.93 in 10.0 mi Calm Calm - N/A   Clear
6:15 PM 60.3 °F 52.0 °F 74% 29.94 in 10.0 mi Calm Calm - N/A   Clear
6:35 PM 57.9 °F 51.8 °F 80% 29.94 in 10.0 mi Calm Calm - N/A   Clear
6:55 PM 55.8 °F 50.7 °F 83% 29.94 in 10.0 mi SSW 3.5 mph - N/A   Clear
7:15 PM 55.0 °F 49.8 °F 83% 29.94 in 10.0 mi SSW 3.5 mph - N/A   Clear
7:35 PM 53.6 °F 48.7 °F 84% 29.94 in 10.0 mi Calm Calm - N/A   Clear
7:55 PM 53.6 °F 50.4 °F 89% 29.95 in 10.0 mi Calm Calm - N/A   Clear
8:15 PM 53.1 °F 50.2 °F 90% 29.97 in 10.0 mi NW 4.6 mph - N/A   Clear
8:35 PM 56.1 °F 50.7 °F 82% 29.97 in 10.0 mi West 3.5 mph - N/A   Clear
8:55 PM 53.8 °F 49.6 °F 86% 29.97 in 10.0 mi Calm Calm - N/A   Clear
9:15 PM 54.1 °F 50.0 °F 86% 29.97 in 10.0 mi Calm Calm - N/A   Clear
9:35 PM 55.4 °F 50.4 °F 83% 29.97 in 10.0 mi Calm Calm - N/A   Clear
9:55 PM 53.2 °F 49.5 °F 87% 29.97 in 10.0 mi Calm Calm - N/A   Clear
10:15 PM 52.9 °F 49.5 °F 88% 29.98 in 10.0 mi WNW 3.5 mph - N/A   Clear
10:35 PM 53.2 °F 50.0 °F 89% 29.98 in 10.0 mi WNW 3.5 mph - N/A   Clear
10:55 PM 54.1 °F 50.2 °F 86% 29.98 in 10.0 mi Calm Calm - N/A   Clear
11:15 PM 54.0 °F 50.7 °F 89% 29.98 in 10.0 mi West 3.5 mph - N/A   Clear
11:35 PM 50.9 °F 48.0 °F 90% 29.97 in 10.0 mi Calm Calm - N/A   Clear
11:55 PM 52.0 °F 49.1 °F 90% 29.97 in 10.0 mi West 3.5 mph - N/A   Clear